sensor_id;sensor_type;location;lat;lon;timestamp;pressure;altitude;pressure_sealevel;temperature;humidity
48790;BME280;41718;51.980;5.734;2023-04-27T00:00:16;101906.81;;;0.70;100.00
48790;BME280;41718;51.980;5.734;2023-04-27T00:05:17;101910.25;;;0.36;100.00
48790;BME280;41718;51.980;5.734;2023-04-27T00:10:20;101918.59;;;0.11;100.00
48790;BME280;41718;51.980;5.734;2023-04-27T00:15:22;101932.06;;;-0.02;100.00
48790;BME280;41718;51.980;5.734;2023-04-27T00:20:23;101924.00;;;0.04;100.00
48790;BME280;41718;51.980;5.734;2023-04-27T00:25:25;101927.34;;;0.15;100.00
48790;BME280;41718;51.980;5.734;2023-04-27T00:30:26;101927.69;;;0.08;100.00
48790;BME280;41718;51.980;5.734;2023-04-27T00:35:28;101925.47;;;0.12;100.00
48790;BME280;41718;51.980;5.734;2023-04-27T00:40:29;101926.84;;;-0.15;100.00
48790;BME280;41718;51.980;5.734;2023-04-27T00:45:41;101928.47;;;0.07;100.00
48790;BME280;41718;51.980;5.734;2023-04-27T00:50:46;101925.19;;;-0.14;100.00
48790;BME280;41718;51.980;5.734;2023-04-27T00:55:47;101924.78;;;-0.31;100.00
48790;BME280;41718;51.980;5.734;2023-04-27T01:00:49;101932.09;;;-0.23;100.00
48790;BME280;41718;51.980;5.734;2023-04-27T01:05:51;101927.66;;;-0.38;100.00
48790;BME280;41718;51.980;5.734;2023-04-27T01:10:53;101934.75;;;-0.34;100.00
48790;BME280;41718;51.980;5.734;2023-04-27T01:15:54;101920.34;;;-0.45;100.00
48790;BME280;41718;51.980;5.734;2023-04-27T01:20:56;101914.94;;;-0.38;100.00
48790;BME280;41718;51.980;5.734;2023-04-27T01:25:57;101925.00;;;-0.61;100.00
48790;BME280;41718;51.980;5.734;2023-04-27T01:30:59;101934.38;;;-0.82;100.00
48790;BME280;41718;51.980;5.734;2023-04-27T01:36:00;101936.22;;;-0.69;100.00
48790;BME280;41718;51.980;5.734;2023-04-27T01:41:05;101935.44;;;-0.68;100.00
48790;BME280;41718;51.980;5.734;2023-04-27T01:46:13;101933.69;;;-0.69;100.00
48790;BME280;41718;51.980;5.734;2023-04-27T01:51:14;101931.59;;;-0.85;100.00
48790;BME280;41718;51.980;5.734;2023-04-27T01:56:16;101924.63;;;-0.88;100.00
48790;BME280;41718;51.980;5.734;2023-04-27T02:01:17;101924.28;;;-0.92;100.00
48790;BME280;41718;51.980;5.734;2023-04-27T02:06:19;101913.72;;;-0.87;100.00
48790;BME280;41718;51.980;5.734;2023-04-27T02:11:20;101918.16;;;-0.84;100.00
48790;BME280;41718;51.980;5.734;2023-04-27T02:16:22;101927.47;;;-0.95;100.00
48790;BME280;41718;51.980;5.734;2023-04-27T02:21:23;101923.97;;;-1.07;100.00
48790;BME280;41718;51.980;5.734;2023-04-27T02:26:25;101921.44;;;-1.07;100.00
48790;BME280;41718;51.980;5.734;2023-04-27T02:31:29;101931.34;;;-1.10;100.00
48790;BME280;41718;51.980;5.734;2023-04-27T02:36:31;101923.94;;;-1.39;100.00
48790;BME280;41718;51.980;5.734;2023-04-27T02:41:33;101917.41;;;-1.25;100.00
48790;BME280;41718;51.980;5.734;2023-04-27T02:46:34;101919.38;;;-1.33;100.00
48790;BME280;41718;51.980;5.734;2023-04-27T02:51:36;101914.88;;;-1.25;100.00
48790;BME280;41718;51.980;5.734;2023-04-27T02:56:37;101917.50;;;-1.46;100.00
48790;BME280;41718;51.980;5.734;2023-04-27T03:01:39;101907.34;;;-1.36;100.00
48790;BME280;41718;51.980;5.734;2023-04-27T03:06:41;101907.59;;;-1.43;100.00
48790;BME280;41718;51.980;5.734;2023-04-27T03:11:42;101909.59;;;-1.39;100.00
48790;BME280;41718;51.980;5.734;2023-04-27T03:16:43;101915.75;;;-1.47;100.00
48790;BME280;41718;51.980;5.734;2023-04-27T03:21:45;101921.31;;;-1.41;100.00
48790;BME280;41718;51.980;5.734;2023-04-27T03:26:47;101924.88;;;-1.59;100.00
48790;BME280;41718;51.980;5.734;2023-04-27T03:31:48;101924.66;;;-1.62;100.00
48790;BME280;41718;51.980;5.734;2023-04-27T03:36:50;101932.66;;;-1.68;100.00
48790;BME280;41718;51.980;5.734;2023-04-27T03:41:51;101929.59;;;-1.64;100.00
48790;BME280;41718;51.980;5.734;2023-04-27T03:46:53;101929.44;;;-1.65;100.00
48790;BME280;41718;51.980;5.734;2023-04-27T03:51:54;101931.16;;;-1.76;100.00
48790;BME280;41718;51.980;5.734;2023-04-27T03:56:56;101931.25;;;-1.64;100.00
48790;BME280;41718;51.980;5.734;2023-04-27T04:01:57;101934.78;;;-1.72;100.00
48790;BME280;41718;51.980;5.734;2023-04-27T04:07:01;101935.78;;;-1.70;100.00
48790;BME280;41718;51.980;5.734;2023-04-27T04:12:03;101937.44;;;-1.71;100.00
48790;BME280;41718;51.980;5.734;2023-04-27T04:17:05;101938.97;;;-1.73;100.00
48790;BME280;41718;51.980;5.734;2023-04-27T04:22:09;101934.28;;;-1.58;100.00
48790;BME280;41718;51.980;5.734;2023-04-27T04:27:10;101933.78;;;-1.74;100.00
48790;BME280;41718;51.980;5.734;2023-04-27T04:32:11;101933.25;;;-1.70;100.00
48790;BME280;41718;51.980;5.734;2023-04-27T04:37:17;101933.41;;;-1.69;100.00
48790;BME280;41718;51.980;5.734;2023-04-27T04:42:19;101944.72;;;-1.85;100.00
48790;BME280;41718;51.980;5.734;2023-04-27T04:47:21;101942.69;;;-1.79;100.00
48790;BME280;41718;51.980;5.734;2023-04-27T04:52:22;101942.16;;;-1.75;100.00
48790;BME280;41718;51.980;5.734;2023-04-27T04:57:24;101946.59;;;-1.63;100.00
48790;BME280;41718;51.980;5.734;2023-04-27T05:02:25;101950.38;;;-1.47;100.00
48790;BME280;41718;51.980;5.734;2023-04-27T05:07:27;101947.69;;;-1.49;100.00
48790;BME280;41718;51.980;5.734;2023-04-27T05:12:28;101948.16;;;-1.33;100.00
48790;BME280;41718;51.980;5.734;2023-04-27T05:17:29;101950.66;;;-1.12;100.00
48790;BME280;41718;51.980;5.734;2023-04-27T05:22:31;101949.56;;;-0.94;100.00
48790;BME280;41718;51.980;5.734;2023-04-27T05:27:32;101941.59;;;-0.76;100.00
48790;BME280;41718;51.980;5.734;2023-04-27T05:32:34;101949.69;;;-0.48;100.00
48790;BME280;41718;51.980;5.734;2023-04-27T05:37:37;101940.50;;;-0.24;100.00
48790;BME280;41718;51.980;5.734;2023-04-27T05:42:39;101955.41;;;0.05;100.00
48790;BME280;41718;51.980;5.734;2023-04-27T05:47:40;101956.47;;;0.30;100.00
48790;BME280;41718;51.980;5.734;2023-04-27T05:52:42;101956.81;;;0.35;100.00
48790;BME280;41718;51.980;5.734;2023-04-27T05:57:43;101955.19;;;0.82;100.00
48790;BME280;41718;51.980;5.734;2023-04-27T06:02:47;101947.84;;;1.10;100.00
48790;BME280;41718;51.980;5.734;2023-04-27T06:07:49;101963.34;;;1.62;100.00
48790;BME280;41718;51.980;5.734;2023-04-27T06:12:51;101957.31;;;2.76;100.00
48790;BME280;41718;51.980;5.734;2023-04-27T06:17:53;101962.41;;;3.57;100.00
48790;BME280;41718;51.980;5.734;2023-04-27T06:22:54;101964.19;;;3.86;100.00
48790;BME280;41718;51.980;5.734;2023-04-27T06:27:57;101960.44;;;4.38;100.00
48790;BME280;41718;51.980;5.734;2023-04-27T06:32:58;101970.22;;;4.16;100.00
48790;BME280;41718;51.980;5.734;2023-04-27T06:38:00;101963.88;;;4.39;100.00
48790;BME280;41718;51.980;5.734;2023-04-27T06:43:02;101963.75;;;4.82;100.00
48790;BME280;41718;51.980;5.734;2023-04-27T06:48:03;101950.22;;;5.46;100.00
48790;BME280;41718;51.980;5.734;2023-04-27T06:53:05;101941.47;;;5.43;100.00
48790;BME280;41718;51.980;5.734;2023-04-27T06:58:07;101933.94;;;5.95;100.00
48790;BME280;41718;51.980;5.734;2023-04-27T07:03:08;101920.75;;;6.05;100.00
48790;BME280;41718;51.980;5.734;2023-04-27T07:08:11;101917.66;;;6.28;100.00
48790;BME280;41718;51.980;5.734;2023-04-27T07:13:13;101922.91;;;6.66;100.00
48790;BME280;41718;51.980;5.734;2023-04-27T07:18:14;101918.50;;;6.81;100.00
48790;BME280;41718;51.980;5.734;2023-04-27T07:23:16;101918.19;;;6.75;100.00
48790;BME280;41718;51.980;5.734;2023-04-27T07:28:17;101922.78;;;7.17;100.00
48790;BME280;41718;51.980;5.734;2023-04-27T07:33:19;101928.53;;;7.49;100.00
48790;BME280;41718;51.980;5.734;2023-04-27T07:38:20;101929.13;;;7.43;100.00
48790;BME280;41718;51.980;5.734;2023-04-27T07:43:22;101917.38;;;7.69;100.00
48790;BME280;41718;51.980;5.734;2023-04-27T07:48:26;101918.22;;;8.09;100.00
48790;BME280;41718;51.980;5.734;2023-04-27T07:53:29;101913.22;;;8.12;100.00
48790;BME280;41718;51.980;5.734;2023-04-27T07:58:30;101917.44;;;8.31;100.00
48790;BME280;41718;51.980;5.734;2023-04-27T08:03:31;101910.47;;;8.70;100.00
48790;BME280;41718;51.980;5.734;2023-04-27T08:08:33;101910.78;;;8.57;100.00
48790;BME280;41718;51.980;5.734;2023-04-27T08:13:35;101912.56;;;8.58;100.00
48790;BME280;41718;51.980;5.734;2023-04-27T08:18:37;101916.16;;;8.84;100.00
48790;BME280;41718;51.980;5.734;2023-04-27T08:23:38;101911.19;;;8.67;100.00
48790;BME280;41718;51.980;5.734;2023-04-27T08:28:40;101915.25;;;8.83;100.00
48790;BME280;41718;51.980;5.734;2023-04-27T08:33:41;101916.19;;;9.30;100.00
48790;BME280;41718;51.980;5.734;2023-04-27T08:38:43;101919.47;;;9.02;100.00
48790;BME280;41718;51.980;5.734;2023-04-27T08:43:44;101907.31;;;9.70;100.00
48790;BME280;41718;51.980;5.734;2023-04-27T08:48:48;101900.97;;;9.14;100.00
48790;BME280;41718;51.980;5.734;2023-04-27T08:53:53;101899.53;;;9.22;100.00
48790;BME280;41718;51.980;5.734;2023-04-27T08:58:56;101898.28;;;9.59;100.00
48790;BME280;41718;51.980;5.734;2023-04-27T09:03:59;101902.53;;;9.80;100.00
48790;BME280;41718;51.980;5.734;2023-04-27T09:09:02;101915.38;;;10.03;100.00
48790;BME280;41718;51.980;5.734;2023-04-27T09:14:18;101924.66;;;9.98;100.00
48790;BME280;41718;51.980;5.734;2023-04-27T09:19:25;101941.63;;;10.15;100.00
48790;BME280;41718;51.980;5.734;2023-04-27T09:24:27;101934.75;;;9.66;100.00
48790;BME280;41718;51.980;5.734;2023-04-27T09:29:35;101939.97;;;10.41;100.00
48790;BME280;41718;51.980;5.734;2023-04-27T09:34:38;101931.72;;;11.07;100.00
48790;BME280;41718;51.980;5.734;2023-04-27T09:39:43;101927.31;;;10.77;100.00
48790;BME280;41718;51.980;5.734;2023-04-27T09:44:48;101916.00;;;11.01;100.00
48790;BME280;41718;51.980;5.734;2023-04-27T09:49:58;101908.47;;;11.38;100.00
48790;BME280;41718;51.980;5.734;2023-04-27T09:55:10;101909.13;;;10.47;100.00
48790;BME280;41718;51.980;5.734;2023-04-27T10:00:27;101905.94;;;11.11;100.00
48790;BME280;41718;51.980;5.734;2023-04-27T10:05:49;101900.97;;;11.48;100.00
48790;BME280;41718;51.980;5.734;2023-04-27T10:11:00;101891.22;;;11.71;100.00
48790;BME280;41718;51.980;5.734;2023-04-27T10:16:54;101899.22;;;12.10;100.00
48790;BME280;41718;51.980;5.734;2023-04-27T10:22:04;101900.69;;;11.38;97.52
48790;BME280;41718;51.980;5.734;2023-04-27T10:27:10;101904.94;;;12.31;97.48
48790;BME280;41718;51.980;5.734;2023-04-27T10:32:25;101907.75;;;12.06;98.67
48790;BME280;41718;51.980;5.734;2023-04-27T10:37:37;101903.31;;;12.71;93.70
48790;BME280;41718;51.980;5.734;2023-04-27T10:42:40;101896.66;;;12.84;92.97
48790;BME280;41718;51.980;5.734;2023-04-27T10:47:43;101887.03;;;12.78;92.01
48790;BME280;41718;51.980;5.734;2023-04-27T10:52:48;101903.34;;;11.72;94.30
48790;BME280;41718;51.980;5.734;2023-04-27T10:57:51;101895.13;;;12.54;95.60
48790;BME280;41718;51.980;5.734;2023-04-27T11:02:54;101888.41;;;13.03;89.61
48790;BME280;41718;51.980;5.734;2023-04-27T11:08:09;101879.94;;;12.71;90.07
48790;BME280;41718;51.980;5.734;2023-04-27T11:13:12;101870.81;;;13.73;93.16
48790;BME280;41718;51.980;5.734;2023-04-27T11:18:17;101874.84;;;12.38;92.44
48790;BME280;41718;51.980;5.734;2023-04-27T11:23:30;101857.81;;;13.28;89.73
48790;BME280;41718;51.980;5.734;2023-04-27T11:28:40;101840.44;;;13.26;86.21
48790;BME280;41718;51.980;5.734;2023-04-27T11:33:47;101831.56;;;13.61;86.70
48790;BME280;41718;51.980;5.734;2023-04-27T11:38:49;101825.56;;;14.16;87.58
48790;BME280;41718;51.980;5.734;2023-04-27T11:43:52;101831.31;;;13.05;85.37
48790;BME280;41718;51.980;5.734;2023-04-27T11:49:00;101819.44;;;13.61;82.06
48790;BME280;41718;51.980;5.734;2023-04-27T11:54:05;101827.94;;;13.52;86.42
48790;BME280;41718;51.980;5.734;2023-04-27T11:59:20;101830.22;;;13.36;85.80
48790;BME280;41718;51.980;5.734;2023-04-27T12:04:22;101819.47;;;12.77;85.23
48790;BME280;41718;51.980;5.734;2023-04-27T12:09:24;101808.38;;;14.85;84.20
48790;BME280;41718;51.980;5.734;2023-04-27T12:14:25;101811.16;;;13.84;83.29
48790;BME280;41718;51.980;5.734;2023-04-27T12:19:27;101803.53;;;13.93;84.84
48790;BME280;41718;51.980;5.734;2023-04-27T12:24:29;101803.72;;;14.05;86.50
48790;BME280;41718;51.980;5.734;2023-04-27T12:29:30;101806.00;;;13.85;85.05
48790;BME280;41718;51.980;5.734;2023-04-27T12:34:32;101794.16;;;14.04;83.22
48790;BME280;41718;51.980;5.734;2023-04-27T12:39:34;101802.28;;;13.71;84.58
48790;BME280;41718;51.980;5.734;2023-04-27T12:44:36;101786.50;;;12.74;84.75
48790;BME280;41718;51.980;5.734;2023-04-27T12:49:37;101783.00;;;14.11;83.26
48790;BME280;41718;51.980;5.734;2023-04-27T12:54:39;101767.78;;;13.33;81.47
48790;BME280;41718;51.980;5.734;2023-04-27T12:59:40;101764.63;;;14.60;80.93
48790;BME280;41718;51.980;5.734;2023-04-27T13:04:42;101761.22;;;14.06;77.34
48790;BME280;41718;51.980;5.734;2023-04-27T13:09:43;101762.47;;;14.29;74.87
48790;BME280;41718;51.980;5.734;2023-04-27T13:14:45;101765.28;;;13.87;77.86
48790;BME280;41718;51.980;5.734;2023-04-27T13:19:47;101771.91;;;13.70;78.04
48790;BME280;41718;51.980;5.734;2023-04-27T13:24:48;101761.41;;;13.17;75.47
48790;BME280;41718;51.980;5.734;2023-04-27T13:29:49;101766.97;;;13.85;77.29
48790;BME280;41718;51.980;5.734;2023-04-27T13:34:51;101764.22;;;13.76;77.26
48790;BME280;41718;51.980;5.734;2023-04-27T13:39:53;101745.13;;;13.75;76.04
48790;BME280;41718;51.980;5.734;2023-04-27T13:44:54;101736.66;;;13.36;74.99
48790;BME280;41718;51.980;5.734;2023-04-27T13:49:57;101731.47;;;13.37;76.65
48790;BME280;41718;51.980;5.734;2023-04-27T13:54:58;101727.19;;;13.91;77.16
48790;BME280;41718;51.980;5.734;2023-04-27T14:00:00;101720.69;;;13.64;77.42
48790;BME280;41718;51.980;5.734;2023-04-27T14:05:03;101719.47;;;13.44;74.95
48790;BME280;41718;51.980;5.734;2023-04-27T14:10:06;101725.50;;;13.41;76.33
48790;BME280;41718;51.980;5.734;2023-04-27T14:15:07;101713.09;;;13.78;78.77
48790;BME280;41718;51.980;5.734;2023-04-27T14:20:09;101716.34;;;13.65;77.15
48790;BME280;41718;51.980;5.734;2023-04-27T14:25:11;101714.53;;;13.59;78.44
48790;BME280;41718;51.980;5.734;2023-04-27T14:30:12;101698.06;;;13.60;77.96
48790;BME280;41718;51.980;5.734;2023-04-27T14:35:14;101695.59;;;13.16;78.00
48790;BME280;41718;51.980;5.734;2023-04-27T14:40:16;101689.31;;;13.05;76.57
48790;BME280;41718;51.980;5.734;2023-04-27T14:45:17;101691.19;;;13.14;77.10
48790;BME280;41718;51.980;5.734;2023-04-27T14:50:19;101690.31;;;13.12;78.44
48790;BME280;41718;51.980;5.734;2023-04-27T14:55:20;101676.78;;;13.28;79.27
48790;BME280;41718;51.980;5.734;2023-04-27T15:00:22;101675.41;;;13.03;78.12
48790;BME280;41718;51.980;5.734;2023-04-27T15:05:23;101671.75;;;12.92;79.67
48790;BME280;41718;51.980;5.734;2023-04-27T15:10:25;101660.84;;;13.11;79.54
48790;BME280;41718;51.980;5.734;2023-04-27T15:15:26;101665.31;;;12.71;76.74
48790;BME280;41718;51.980;5.734;2023-04-27T15:20:28;101654.84;;;12.67;76.71
48790;BME280;41718;51.980;5.734;2023-04-27T15:25:29;101659.38;;;12.79;78.48
48790;BME280;41718;51.980;5.734;2023-04-27T15:30:32;101656.66;;;12.71;78.42
48790;BME280;41718;51.980;5.734;2023-04-27T15:35:34;101642.63;;;12.63;78.31
48790;BME280;41718;51.980;5.734;2023-04-27T15:40:38;101653.63;;;12.95;79.50
48790;BME280;41718;51.980;5.734;2023-04-27T15:45:40;101653.59;;;12.48;78.88
48790;BME280;41718;51.980;5.734;2023-04-27T15:50:43;101645.81;;;12.48;79.40
48790;BME280;41718;51.980;5.734;2023-04-27T15:55:45;101634.25;;;12.32;79.53
48790;BME280;41718;51.980;5.734;2023-04-27T16:00:46;101624.00;;;12.38;80.96
48790;BME280;41718;51.980;5.734;2023-04-27T16:05:48;101625.13;;;12.53;82.00
48790;BME280;41718;51.980;5.734;2023-04-27T16:10:51;101622.41;;;12.46;81.35
48790;BME280;41718;51.980;5.734;2023-04-27T16:15:52;101614.09;;;12.64;82.71
48790;BME280;41718;51.980;5.734;2023-04-27T16:20:54;101607.91;;;12.58;83.00
48790;BME280;41718;51.980;5.734;2023-04-27T16:25:55;101591.06;;;12.36;80.04
48790;BME280;41718;51.980;5.734;2023-04-27T16:30:57;101586.63;;;12.30;81.07
48790;BME280;41718;51.980;5.734;2023-04-27T16:35:59;101579.69;;;12.29;81.60
48790;BME280;41718;51.980;5.734;2023-04-27T16:41:00;101584.88;;;12.29;83.19
48790;BME280;41718;51.980;5.734;2023-04-27T16:46:02;101578.66;;;12.21;81.43
48790;BME280;41718;51.980;5.734;2023-04-27T16:51:04;101570.09;;;12.25;83.72
48790;BME280;41718;51.980;5.734;2023-04-27T16:56:05;101562.13;;;12.14;84.12
48790;BME280;41718;51.980;5.734;2023-04-27T17:01:07;101548.06;;;12.05;83.24
48790;BME280;41718;51.980;5.734;2023-04-27T17:06:09;101539.69;;;11.77;83.24
48790;BME280;41718;51.980;5.734;2023-04-27T17:11:13;101532.50;;;11.64;86.56
48790;BME280;41718;51.980;5.734;2023-04-27T17:16:15;101545.75;;;11.78;86.99
48790;BME280;41718;51.980;5.734;2023-04-27T17:21:17;101548.25;;;11.73;86.18
48790;BME280;41718;51.980;5.734;2023-04-27T17:26:20;101548.16;;;11.68;nan
48790;BME280;41718;51.980;5.734;2023-04-27T17:31:23;101539.03;;;11.47;88.01
48790;BME280;41718;51.980;5.734;2023-04-27T17:36:24;101548.56;;;11.48;89.13
48790;BME280;41718;51.980;5.734;2023-04-27T17:41:27;101556.13;;;11.40;90.89
48790;BME280;41718;51.980;5.734;2023-04-27T17:46:28;101559.47;;;11.34;91.40
48790;BME280;41718;51.980;5.734;2023-04-27T17:51:31;101544.47;;;11.21;91.25
48790;BME280;41718;51.980;5.734;2023-04-27T17:56:33;101553.69;;;11.08;91.34
48790;BME280;41718;51.980;5.734;2023-04-27T18:01:34;101547.44;;;11.00;92.01
48790;BME280;41718;51.980;5.734;2023-04-27T18:06:36;101555.09;;;10.96;92.69
48790;BME280;41718;51.980;5.734;2023-04-27T18:11:37;101547.06;;;10.85;93.43
48790;BME280;41718;51.980;5.734;2023-04-27T18:16:39;101541.91;;;10.85;94.63
48790;BME280;41718;51.980;5.734;2023-04-27T18:21:41;101538.19;;;10.75;93.64
48790;BME280;41718;51.980;5.734;2023-04-27T18:26:42;101526.81;;;10.69;94.46
48790;BME280;41718;51.980;5.734;2023-04-27T18:31:44;101526.56;;;10.59;95.58
48790;BME280;41718;51.980;5.734;2023-04-27T18:36:46;101534.16;;;10.53;95.40
48790;BME280;41718;51.980;5.734;2023-04-27T18:41:52;101539.22;;;10.49;95.97
48790;BME280;41718;51.980;5.734;2023-04-27T18:46:53;101538.16;;;10.41;95.96
48790;BME280;41718;51.980;5.734;2023-04-27T18:51:55;101548.41;;;10.38;98.03
48790;BME280;41718;51.980;5.734;2023-04-27T18:56:56;101548.31;;;10.33;97.25
48790;BME280;41718;51.980;5.734;2023-04-27T19:01:58;101542.88;;;10.24;98.97
48790;BME280;41718;51.980;5.734;2023-04-27T19:07:00;101537.56;;;10.21;99.06
48790;BME280;41718;51.980;5.734;2023-04-27T19:12:02;101540.00;;;10.15;100.00
48790;BME280;41718;51.980;5.734;2023-04-27T19:17:04;101537.06;;;10.02;100.00
48790;BME280;41718;51.980;5.734;2023-04-27T19:22:08;101537.84;;;9.98;100.00
48790;BME280;41718;51.980;5.734;2023-04-27T19:27:09;101536.81;;;9.93;100.00
48790;BME280;41718;51.980;5.734;2023-04-27T19:32:12;101526.38;;;9.90;100.00
48790;BME280;41718;51.980;5.734;2023-04-27T19:37:13;101527.88;;;9.82;100.00
48790;BME280;41718;51.980;5.734;2023-04-27T19:42:18;101529.59;;;9.81;100.00
48790;BME280;41718;51.980;5.734;2023-04-27T19:47:22;101529.47;;;9.77;100.00
48790;BME280;41718;51.980;5.734;2023-04-27T19:52:26;101520.06;;;9.80;100.00
48790;BME280;41718;51.980;5.734;2023-04-27T19:57:30;101519.84;;;9.73;100.00
48790;BME280;41718;51.980;5.734;2023-04-27T20:02:34;101511.28;;;9.74;100.00
48790;BME280;41718;51.980;5.734;2023-04-27T20:07:41;101522.31;;;9.68;100.00
48790;BME280;41718;51.980;5.734;2023-04-27T20:12:43;101518.78;;;9.65;100.00
48790;BME280;41718;51.980;5.734;2023-04-27T20:17:57;101512.81;;;9.67;100.00
48790;BME280;41718;51.980;5.734;2023-04-27T20:22:58;101502.25;;;9.60;100.00
48790;BME280;41718;51.980;5.734;2023-04-27T20:28:00;101500.63;;;9.63;100.00
48790;BME280;41718;51.980;5.734;2023-04-27T20:33:02;101506.47;;;9.57;100.00
48790;BME280;41718;51.980;5.734;2023-04-27T20:38:04;101482.47;;;9.60;100.00
48790;BME280;41718;51.980;5.734;2023-04-27T20:43:08;101477.19;;;9.57;100.00
48790;BME280;41718;51.980;5.734;2023-04-27T20:48:13;101465.09;;;9.54;100.00
48790;BME280;41718;51.980;5.734;2023-04-27T20:53:14;101459.22;;;9.60;100.00
48790;BME280;41718;51.980;5.734;2023-04-27T20:58:19;101454.81;;;9.57;100.00
48790;BME280;41718;51.980;5.734;2023-04-27T21:03:21;101457.16;;;9.48;100.00
48790;BME280;41718;51.980;5.734;2023-04-27T21:08:22;101444.09;;;9.44;100.00
48790;BME280;41718;51.980;5.734;2023-04-27T21:13:24;101443.28;;;9.45;100.00
48790;BME280;41718;51.980;5.734;2023-04-27T21:18:26;101441.38;;;9.39;100.00
48790;BME280;41718;51.980;5.734;2023-04-27T21:23:35;101430.66;;;9.25;100.00
48790;BME280;41718;51.980;5.734;2023-04-27T21:28:48;101414.41;;;9.29;100.00
48790;BME280;41718;51.980;5.734;2023-04-27T21:33:51;101405.19;;;9.38;100.00
48790;BME280;41718;51.980;5.734;2023-04-27T21:38:53;101395.47;;;9.29;100.00
48790;BME280;41718;51.980;5.734;2023-04-27T21:43:54;101387.03;;;9.35;100.00
48790;BME280;41718;51.980;5.734;2023-04-27T21:48:57;101378.22;;;9.28;100.00
48790;BME280;41718;51.980;5.734;2023-04-27T21:53:59;101372.34;;;9.32;100.00
48790;BME280;41718;51.980;5.734;2023-04-27T21:59:01;101357.75;;;9.34;100.00
48790;BME280;41718;51.980;5.734;2023-04-27T22:04:03;101362.84;;;9.31;100.00
48790;BME280;41718;51.980;5.734;2023-04-27T22:09:07;101344.09;;;9.38;100.00
48790;BME280;41718;51.980;5.734;2023-04-27T22:14:09;101339.47;;;9.26;100.00
48790;BME280;41718;51.980;5.734;2023-04-27T22:19:10;101337.78;;;9.28;100.00
48790;BME280;41718;51.980;5.734;2023-04-27T22:24:13;101332.50;;;9.24;100.00
48790;BME280;41718;51.980;5.734;2023-04-27T22:29:14;101335.94;;;9.24;100.00
48790;BME280;41718;51.980;5.734;2023-04-27T22:34:16;101327.56;;;9.32;100.00
48790;BME280;41718;51.980;5.734;2023-04-27T22:39:18;101316.94;;;9.21;100.00
48790;BME280;41718;51.980;5.734;2023-04-27T22:44:19;101324.75;;;9.24;100.00
48790;BME280;41718;51.980;5.734;2023-04-27T22:49:21;101322.06;;;9.19;100.00
48790;BME280;41718;51.980;5.734;2023-04-27T22:54:23;101315.94;;;9.16;100.00
48790;BME280;41718;51.980;5.734;2023-04-27T22:59:25;101303.88;;;9.15;100.00
48790;BME280;41718;51.980;5.734;2023-04-27T23:04:26;101295.28;;;9.16;100.00
48790;BME280;41718;51.980;5.734;2023-04-27T23:09:28;101287.50;;;9.14;100.00
48790;BME280;41718;51.980;5.734;2023-04-27T23:14:29;101287.41;;;9.11;100.00
48790;BME280;41718;51.980;5.734;2023-04-27T23:19:32;101290.81;;;9.10;100.00
48790;BME280;41718;51.980;5.734;2023-04-27T23:24:33;101281.38;;;9.11;100.00
48790;BME280;41718;51.980;5.734;2023-04-27T23:29:34;101278.66;;;9.06;100.00
48790;BME280;41718;51.980;5.734;2023-04-27T23:34:36;101269.09;;;9.02;100.00
48790;BME280;41718;51.980;5.734;2023-04-27T23:39:37;101255.22;;;8.98;100.00
48790;BME280;41718;51.980;5.734;2023-04-27T23:44:39;101245.81;;;9.00;100.00
48790;BME280;41718;51.980;5.734;2023-04-27T23:49:43;101234.56;;;8.97;100.00
48790;BME280;41718;51.980;5.734;2023-04-27T23:54:44;101228.28;;;8.89;100.00
48790;BME280;41718;51.980;5.734;2023-04-27T23:59:46;101208.38;;;8.85;100.00
